createdAt,value
2022-09-05T03:57:41.835Z,75.86
2022-09-05T04:07:13.355Z,75.86
2022-09-05T04:08:15.212Z,78.47
2022-09-05T04:09:31.569Z,78.23
2022-09-05T04:13:21.639Z,78.22
2022-09-05T04:16:34.581Z,76.96
2022-09-05T04:19:43.323Z,75.64
2022-09-05T04:23:19.624Z,75.34
2022-09-05T04:26:51.195Z,74.78
2022-09-05T04:30:06.567Z,75.13
2022-09-05T04:33:36.589Z,76.16
2022-09-05T04:36:41.337Z,76.73
2022-09-05T04:39:47.168Z,75.48
2022-09-05T04:42:51.510Z,74.83
2022-09-05T04:46:20.399Z,75.40
2022-09-05T04:49:28.636Z,75.56
2022-09-05T04:53:22.723Z,75.90
2022-09-05T04:56:32.634Z,77.54
2022-09-05T05:05:01.067Z,77.30
2022-09-05T05:06:08.361Z,77.66
2022-09-05T05:07:06.076Z,77.76
2022-09-05T05:15:04.364Z,77.09
2022-09-05T05:17:57.330Z,75.19
2022-09-05T05:18:11.319Z,72.87
2022-09-05T05:21:00.369Z,73.74
2022-09-05T05:24:21.819Z,74.30
2022-09-05T05:27:27.913Z,74.50
2022-09-05T05:30:32.822Z,75.38
2022-09-05T05:33:39.019Z,74.57
2022-09-05T05:36:50.403Z,73.98
2022-09-05T05:40:15.504Z,74.15
2022-09-05T05:43:36.530Z,74.55
2022-09-05T05:46:44.443Z,74.16
2022-09-05T05:50:33.157Z,74.63
2022-09-05T05:53:47.888Z,73.80
2022-09-05T05:57:35.639Z,74.14
2022-09-05T06:01:06.620Z,73.50
2022-09-05T06:04:29.242Z,72.17
2022-09-05T06:14:49.679Z,72.07
2022-09-05T06:15:01.921Z,71.36
2022-09-05T06:15:44.334Z,69.23
2022-09-05T06:19:14.765Z,69.18
2022-09-05T06:22:52.625Z,69.33
2022-09-05T06:26:08.077Z,67.58
2022-09-05T06:30:00.501Z,67.40
2022-09-05T06:33:18.179Z,66.99
2022-09-05T06:36:35.878Z,66.78
2022-09-05T06:40:19.726Z,65.70
2022-09-05T06:43:59.023Z,65.00
2022-09-05T06:47:24.332Z,64.50
2022-09-05T06:51:07.558Z,63.65
2022-09-05T06:54:28.267Z,61.31
2022-09-05T06:58:03.094Z,60.52
2022-09-05T07:01:08.764Z,60.50
2022-09-05T07:05:23.767Z,60.24
2022-09-05T07:08:35.112Z,60.04
2022-09-05T07:12:06.816Z,60.61
2022-09-05T07:15:10.044Z,60.95
2022-09-05T07:18:25.433Z,58.87
2022-09-05T07:21:44.355Z,58.66
2022-09-05T07:24:54.701Z,58.43
2022-09-05T07:28:26.369Z,56.80
2022-09-05T07:31:38.943Z,56.74
2022-09-05T07:34:45.800Z,55.14
2022-09-05T07:37:59.339Z,54.44
2022-09-05T07:41:20.666Z,53.71
2022-09-05T07:44:29.613Z,52.69
2022-09-05T07:47:36.548Z,53.32
2022-09-05T07:56:56.678Z,52.41
2022-09-05T07:57:13.214Z,52.95
2022-09-05T07:58:07.770Z,53.33
2022-09-05T08:01:14.702Z,51.97
2022-09-05T08:04:30.015Z,51.31
2022-09-05T08:07:49.902Z,49.41
2022-09-05T08:11:23.790Z,47.79
2022-09-05T08:14:54.777Z,46.89
2022-09-05T08:18:11.680Z,47.31
2022-09-05T08:21:27.589Z,49.28
2022-09-05T08:24:39.611Z,47.23
2022-09-05T08:28:03.257Z,46.04
2022-09-05T08:31:12.329Z,46.82
2022-09-05T08:34:44.333Z,44.62
2022-09-05T08:37:50.208Z,46.88
2022-09-05T08:41:07.306Z,46.18
2022-09-05T08:46:41.511Z,44.62
2022-09-05T08:47:56.787Z,45.76
2022-09-05T08:51:11.426Z,46.06
2022-09-05T08:55:05.780Z,43.93
2022-09-05T08:58:21.190Z,43.33
2022-09-05T09:02:38.021Z,44.10
2022-09-05T09:05:18.428Z,42.81
2022-09-05T09:08:29.287Z,41.51
2022-09-05T09:11:52.758Z,44.88
2022-09-05T09:15:03.685Z,39.40
2022-09-05T09:18:15.856Z,39.64
2022-09-05T09:21:28.684Z,39.28
2022-09-05T09:25:14.362Z,39.04
2022-09-05T09:28:50.507Z,39.64
2022-09-05T09:32:18.002Z,41.20
2022-09-05T09:35:26.271Z,41.06
2022-09-05T09:38:44.158Z,40.86
2022-09-05T09:42:08.781Z,41.79
2022-09-05T09:45:49.431Z,40.98
2022-09-05T09:49:00.844Z,40.28
2022-09-05T09:52:25.181Z,40.20
2022-09-05T09:55:58.240Z,40.60
2022-09-05T09:59:13.514Z,40.20
2022-09-05T10:04:36.703Z,40.83
2022-09-05T10:10:44.345Z,38.81
2022-09-05T10:10:57.644Z,41.51
2022-09-05T10:14:47.514Z,44.16
2022-09-05T10:17:58.896Z,42.74
2022-09-05T10:21:39.541Z,40.70
2022-09-05T10:25:18.456Z,42.60
2022-09-05T10:28:40.533Z,40.78
2022-09-05T10:34:20.332Z,43.43
2022-09-05T10:35:45.155Z,41.82
2022-09-05T10:39:13.613Z,41.61
2022-09-05T10:42:28.420Z,41.46
2022-09-05T10:45:52.769Z,40.80
2022-09-05T10:49:03.306Z,41.53
2022-09-05T10:52:34.935Z,38.74
2022-09-05T10:56:03.966Z,37.69
2022-09-05T11:02:15.956Z,40.12
2022-09-05T11:02:48.122Z,40.77
2022-09-05T11:06:10.109Z,38.42
2022-09-05T11:09:46.979Z,39.02
2022-09-05T11:12:57.502Z,37.96
2022-09-05T11:16:13.403Z,38.52
2022-09-05T11:19:29.115Z,38.64
2022-09-05T11:22:39.044Z,39.28
2022-09-05T11:25:43.035Z,39.25
2022-09-05T11:29:00.565Z,39.18
2022-09-05T11:38:30.558Z,36.93
2022-09-05T11:39:59.171Z,37.22
2022-09-05T11:40:28.296Z,36.61
2022-09-05T11:43:39.255Z,37.12
2022-09-05T11:47:29.658Z,36.08
2022-09-05T11:50:56.131Z,36.32
2022-09-05T11:54:20.273Z,36.26
2022-09-05T11:57:38.701Z,38.20
2022-09-05T12:00:51.866Z,39.04
2022-09-05T12:04:28.589Z,37.82
2022-09-05T12:08:05.589Z,38.68
2022-09-05T12:11:39.677Z,38.15
2022-09-05T12:14:59.860Z,39.05
2022-09-05T12:18:37.722Z,38.21
2022-09-05T12:22:08.839Z,38.53
2022-09-05T12:27:41.543Z,38.56
2022-09-05T12:29:29.235Z,38.53
2022-09-05T12:36:01.395Z,38.92
2022-09-05T12:39:59.588Z,39.63
2022-09-05T12:40:58.494Z,40.10
2022-09-05T12:44:32.554Z,40.14
2022-09-05T12:47:19.146Z,40.27
2022-09-05T12:50:33.491Z,39.49
2022-09-05T12:53:45.570Z,40.24
2022-09-05T13:01:41.993Z,41.28
2022-09-05T13:03:14.442Z,40.40
2022-09-05T13:04:13.240Z,39.61
2022-09-05T13:07:16.239Z,39.09
2022-09-05T13:14:48.187Z,40.21
2022-09-05T13:14:58.078Z,38.86
2022-09-05T13:17:44.621Z,39.33
2022-09-05T13:21:07.707Z,39.25
2022-09-05T13:24:14.401Z,39.16
2022-09-05T13:27:29.516Z,39.42
2022-09-05T13:37:53.664Z,40.41
2022-09-05T13:37:59.939Z,39.75
2022-09-05T13:38:19.618Z,39.61
2022-09-05T13:40:58.206Z,38.87
2022-09-05T13:44:25.744Z,38.87
2022-09-05T13:47:57.748Z,39.84
2022-09-05T13:51:15.788Z,39.00
2022-09-05T13:54:51.673Z,38.05
2022-09-05T13:57:58.314Z,38.18
2022-09-05T14:01:12.050Z,37.32
2022-09-05T14:05:13.474Z,38.82
2022-09-05T14:08:20.710Z,36.41
2022-09-05T14:11:45.191Z,38.44
2022-09-05T14:15:13.695Z,37.49
2022-09-05T14:18:24.239Z,37.01
2022-09-05T14:21:30.544Z,37.06
2022-09-05T14:24:43.166Z,37.59
2022-09-05T14:27:50.177Z,37.71
2022-09-05T14:37:45.690Z,38.09
2022-09-05T14:37:52.209Z,38.74
2022-09-05T14:38:56.514Z,38.77
2022-09-05T14:42:16.605Z,38.81
2022-09-05T14:46:00.391Z,38.31
2022-09-05T14:49:25.664Z,38.20
2022-09-05T14:52:30.909Z,38.54
2022-09-05T14:55:35.802Z,38.76
2022-09-05T15:02:50.082Z,38.79
2022-09-05T15:02:50.649Z,38.99
2022-09-05T15:05:50.374Z,38.70
2022-09-05T15:11:24.029Z,38.55
2022-09-05T15:12:39.656Z,38.67
2022-09-05T15:16:00.655Z,38.24
2022-09-05T15:19:09.993Z,38.45
2022-09-05T15:22:28.013Z,38.63
2022-09-05T15:25:32.323Z,38.75
2022-09-05T15:28:42.755Z,38.61
2022-09-05T15:31:45.557Z,38.07
2022-09-05T15:34:57.362Z,38.42
2022-09-05T15:37:59.992Z,37.32
2022-09-05T15:41:22.152Z,37.57
2022-09-05T15:44:29.070Z,37.59
2022-09-05T15:47:33.242Z,37.36
2022-09-05T15:50:41.436Z,38.54
2022-09-05T15:53:44.130Z,39.32
2022-09-05T15:56:51.792Z,38.26
